Time;durP1;ratioP1;P1;durP2;ratioP2;P2;SDS_P1;SDS_P2;PMS_P1;PMS_P2;Temp;Humidity;BMP_temperature;BMP_pressure;BME280_temperature;BME280_humidity;BME280_pressure;Samples;Min_cycle;Max_cycle;Signal;HPM_P1;HPM_P2
2022/11/05 03:28:45;;;;;;;11.60;7.10;;;;;;;6.55;80.56;98785.02;99292;1337;600020;-23
2022/11/05 03:31:12;;;;;;;12.90;5.80;;;;;;;6.34;80.99;98787.77;101270;1315;61168;-23
2022/11/05 03:33:40;;;;;;;11.10;6.20;;;;;;;6.28;81.70;98783.70;101213;1309;61892;-23
2022/11/05 03:36:12;;;;;;;8.50;5.00;;;;;;;6.70;80.88;98781.73;101788;1300;74872;-26
2022/11/05 03:38:41;;;;;;;14.60;7.40;;;;;;;6.84;79.92;98789.53;101862;1305;76667;-25
2022/11/05 03:41:09;;;;;;;9.20;5.90;;;;;;;6.70;80.10;98790.02;101886;1305;75271;-25
2022/11/05 03:43:39;;;;;;;13.40;8.40;;;;;;;6.46;80.89;98787.87;101448;1297;61268;-26
2022/11/05 03:46:13;;;;;;;10.60;6.90;;;;;;;6.29;82.09;98790.36;101995;1304;61104;-25
2022/11/05 03:48:43;;;;;;;10.40;5.70;;;;;;;6.67;81.29;98788.88;101987;1305;73523;-26
2022/11/05 03:51:17;;;;;;;16.20;9.40;;;;;;;6.80;80.44;98792.30;102133;1301;76789;-24
2022/11/05 03:58:19;;;;;;;13.40;8.70;;;;;;;6.27;82.17;98792.05;102257;1301;61170;-23
2022/11/05 04:00:47;;;;;;;12.30;7.90;;;;;;;6.54;82.19;98796.13;101956;1305;62800;-24
2022/11/05 04:03:14;;;;;;;11.20;6.60;;;;;;;6.71;81.29;98802.05;101880;1299;75553;-24
2022/11/05 04:05:41;;;;;;;12.10;7.10;;;;;;;6.64;81.22;98806.86;102146;1302;76726;-23
2022/11/05 04:13:40;;;;;;;13.10;7.70;;;;;;;6.72;81.70;98798.81;102039;1302;61503;-24
2022/11/05 04:19:00;;;;;;;16.70;9.70;;;;;;;6.54;81.69;98802.15;101795;1296;76667;-24
2022/11/05 04:24:13;;;;;;;11.90;7.20;;;;;;;6.57;82.43;98808.52;102075;1302;61587;-23
2022/11/05 04:26:42;;;;;;;13.30;5.60;;;;;;;6.88;81.34;98811.19;101967;1302;62455;-24
2022/11/05 04:31:56;;;;;;;20.10;6.50;;;;;;;6.59;81.63;98810.11;102020;1304;76728;-24
2022/11/05 04:34:23;;;;;;;12.10;5.50;;;;;;;6.38;82.44;98806.16;101924;1305;74121;-24
2022/11/05 04:36:51;;;;;;;17.30;9.30;;;;;;;6.69;82.33;98804.08;102041;1304;62999;-25
2022/11/05 04:39:18;;;;;;;11.60;7.30;;;;;;;7.09;80.74;98809.77;101909;1297;61570;-25
2022/11/05 04:41:48;;;;;;;11.20;6.80;;;;;;;7.05;80.29;98812.11;101987;1305;75347;-25
2022/11/05 04:44:16;;;;;;;14.80;8.00;;;;;;;6.85;80.72;98805.23;101971;1305;76026;-24
2022/11/05 04:46:43;;;;;;;10.60;5.10;;;;;;;6.56;81.53;98811.16;101841;1305;74985;-24
2022/11/05 04:49:10;;;;;;;11.30;6.30;;;;;;;6.44;82.60;98808.53;101936;1308;64515;-25
2022/11/05 04:51:37;;;;;;;16.50;7.50;;;;;;;6.83;81.77;98811.18;101961;1302;63044;-25
2022/11/05 04:54:05;;;;;;;17.00;9.00;;;;;;;7.06;80.71;98815.35;101996;1294;75582;-25
2022/11/05 04:56:32;;;;;;;15.50;9.20;;;;;;;6.97;80.67;98818.02;101958;1298;74853;-24
2022/11/05 04:58:59;;;;;;;17.90;9.80;;;;;;;6.75;81.07;98814.48;101929;1302;74177;-25
2022/11/05 05:01:26;;;;;;;17.40;6.80;;;;;;;6.53;81.86;98813.12;101898;1305;61557;-25
2022/11/05 05:03:54;;;;;;;13.00;8.40;;;;;;;6.85;81.80;98811.92;101919;1305;61123;-25
2022/11/05 05:06:21;;;;;;;16.20;9.10;;;;;;;7.24;80.28;98813.71;101938;1302;75710;-24
2022/11/05 05:08:49;;;;;;;11.20;6.40;;;;;;;7.24;79.67;98820.95;102014;1298;76830;-25
2022/11/05 05:11:18;;;;;;;13.80;7.30;;;;;;;7.07;80.03;98826.63;102000;1302;73396;-25
2022/11/05 05:13:46;;;;;;;15.70;9.10;;;;;;;6.78;80.74;98831.56;101879;1300;61927;-25
2022/11/05 05:16:24;;;;;;;11.00;6.90;;;;;;;6.68;81.65;98830.86;101892;1305;61187;-24
2022/11/05 05:18:51;;;;;;;12.40;7.30;;;;;;;7.15;80.73;98832.83;101856;1302;74751;-25
2022/11/05 05:21:39;;;;;;;12.90;5.80;;;;;;;7.25;79.75;98835.19;101885;1293;76742;-25
2022/11/05 05:24:15;;;;;;;17.50;9.20;;;;;;;7.11;79.83;98834.98;101952;1305;75174;-25
2022/11/05 05:26:44;;;;;;;13.80;8.30;;;;;;;6.84;80.63;98834.78;101854;1297;61536;-25
2022/11/05 05:29:11;;;;;;;17.70;9.50;;;;;;;6.65;81.39;98831.08;101856;1305;61158;-25
2022/11/05 05:31:38;;;;;;;20.10;10.00;;;;;;;6.92;81.46;98826.77;101979;1304;75528;-25
2022/11/05 05:34:06;;;;;;;14.50;9.10;;;;;;;7.30;80.03;98830.02;101937;1297;74766;-25
2022/11/05 05:36:33;;;;;;;15.70;10.20;;;;;;;7.26;79.61;98829.11;101958;1305;75282;-23
2022/11/05 05:39:00;;;;;;;19.00;9.00;;;;;;;7.05;80.09;98832.27;101950;1302;61832;-23
2022/11/05 05:41:28;;;;;;;10.50;6.30;;;;;;;6.83;80.80;98825.16;101957;1297;62883;-23
2022/11/05 05:43:55;;;;;;;18.40;7.90;;;;;;;6.72;81.68;98827.33;101956;1304;74187;-23
2022/11/05 05:46:22;;;;;;;14.50;8.80;;;;;;;7.03;81.13;98832.63;101948;1301;76817;-23
2022/11/05 05:48:50;;;;;;;17.70;8.50;;;;;;;7.18;80.36;98840.55;101842;1305;74885;-22
2022/11/05 05:51:18;;;;;;;17.40;9.70;;;;;;;7.13;80.17;98845.21;101871;1308;61207;-23
2022/11/05 05:53:45;;;;;;;17.40;9.70;;;;;;;6.92;80.68;98853.36;101884;1302;61789;-22
2022/11/05 05:56:13;;;;;;;18.10;8.90;;;;;;;6.70;81.49;98855.23;101976;1302;75611;-23
2022/11/05 05:58:41;;;;;;;22.10;9.60;;;;;;;6.91;81.66;98852.10;101871;1305;76748;-23
2022/11/05 06:01:11;;;;;;;16.10;7.20;;;;;;;7.20;80.48;98850.94;101855;1303;73231;-22
2022/11/05 06:03:45;;;;;;;14.40;6.80;;;;;;;7.09;80.49;98856.54;101806;1302;61505;-22
2022/11/05 06:06:12;;;;;;;17.40;8.00;;;;;;;6.93;80.88;98859.66;101958;1301;61801;-23
2022/11/05 06:08:40;;;;;;;15.10;8.40;;;;;;;6.74;81.47;98862.85;101925;1297;74726;-24
2022/11/05 06:11:08;;;;;;;16.60;6.70;;;;;;;6.92;81.85;98862.89;101956;1303;74866;-25
2022/11/05 06:13:35;;;;;;;21.60;8.70;;;;;;;7.23;80.70;98862.27;101891;1304;74233;-26
2022/11/05 06:16:04;;;;;;;14.00;7.10;;;;;;;7.14;80.65;98862.20;101926;1304;62457;-24
2022/11/05 06:18:32;;;;;;;18.20;8.90;;;;;;;6.98;81.19;98868.30;101829;1303;62867;-24
2022/11/05 06:21:10;;;;;;;15.40;8.20;;;;;;;6.74;81.93;98872.23;101867;1302;75659;-24
2022/11/05 06:23:38;;;;;;;16.00;6.80;;;;;;;6.86;82.49;98869.52;101858;1304;74745;-25
2022/11/05 06:26:13;;;;;;;22.60;7.30;;;;;;;7.21;81.24;98874.02;101834;1303;75435;-24
2022/11/05 06:28:40;;;;;;;15.20;7.50;;;;;;;7.20;81.09;98872.87;101613;1308;61498;-24
2022/11/05 06:31:09;;;;;;;19.40;7.30;;;;;;;7.07;81.33;98874.28;101992;1302;61163;-24
2022/11/05 06:33:36;;;;;;;11.50;6.30;;;;;;;6.84;81.88;98879.26;101869;1302;74714;-24
2022/11/05 06:36:04;;;;;;;21.70;10.20;;;;;;;6.98;82.35;98878.70;101904;1298;75687;-25
2022/11/05 06:38:32;;;;;;;15.30;8.70;;;;;;;7.31;81.30;98881.94;101923;1305;75128;-25
2022/11/05 06:41:00;;;;;;;16.20;7.00;;;;;;;7.26;80.98;98880.05;101949;1302;62801;-26
2022/11/05 06:43:36;;;;;;;15.00;7.30;;;;;;;7.02;81.76;98877.89;101994;1297;61523;-28
2022/11/05 06:46:04;;;;;;;13.80;6.60;;;;;;;6.83;82.35;98873.49;101938;1305;74568;-29
2022/11/05 06:48:31;;;;;;;22.60;9.80;;;;;;;6.95;82.99;98876.84;101869;1303;76777;-26
2022/11/05 06:50:58;;;;;;;17.80;8.80;;;;;;;7.35;81.66;98884.58;101900;1297;75297;-24
2022/11/05 06:53:25;;;;;;;13.10;7.70;;;;;;;7.36;81.10;98886.27;101929;1302;61763;-24
2022/11/05 06:55:53;;;;;;;20.00;8.80;;;;;;;7.10;81.69;98888.25;101863;1289;61525;-23
2022/11/05 06:58:20;;;;;;;12.80;7.20;;;;;;;6.84;82.52;98890.83;101932;1297;75575;-23
2022/11/05 07:00:47;;;;;;;21.30;9.30;;;;;;;6.95;83.12;98891.67;101867;1298;76546;-23
2022/11/05 07:03:14;;;;;;;20.80;9.70;;;;;;;7.34;81.87;98899.35;101914;1295;75230;-23
2022/11/05 07:05:44;;;;;;;18.20;9.40;;;;;;;7.37;81.32;98895.54;101966;1305;61579;-24
2022/11/05 07:08:11;;;;;;;13.80;8.30;;;;;;;7.22;81.64;98897.94;101900;1302;62066;-24
2022/11/05 07:10:38;;;;;;;12.10;6.20;;;;;;;7.00;82.14;98899.77;101926;1301;75370;-23
2022/11/05 07:13:06;;;;;;;15.50;7.00;;;;;;;6.98;83.00;98896.27;101934;1298;76241;-24
2022/11/05 07:15:35;;;;;;;18.70;8.70;;;;;;;7.47;82.14;98896.23;101955;1304;72774;-24
2022/11/05 07:18:03;;;;;;;21.90;10.10;;;;;;;7.56;81.12;98898.30;101914;1304;63035;-24
2022/11/05 07:20:30;;;;;;;18.20;9.80;;;;;;;7.44;81.40;98900.20;101850;1302;61100;-23
2022/11/05 07:23:05;;;;;;;19.90;10.50;;;;;;;7.22;81.85;98905.16;101985;1298;75025;-24
2022/11/05 07:25:32;;;;;;;18.70;9.30;;;;;;;7.01;82.82;98910.76;101849;1305;75549;-23
2022/11/05 07:28:00;;;;;;;15.00;8.70;;;;;;;7.41;82.54;98909.04;101980;1305;74107;-24
2022/11/05 07:30:27;;;;;;;16.70;9.00;;;;;;;7.78;81.42;98908.70;101851;1305;62714;-24
2022/11/05 07:32:55;;;;;;;19.00;9.70;;;;;;;7.77;80.60;98908.58;101935;1297;61500;-24
2022/11/05 07:35:22;;;;;;;20.70;10.30;;;;;;;7.53;80.78;98907.36;101882;1302;73548;-24
2022/11/05 07:37:50;;;;;;;14.90;7.10;;;;;;;7.28;81.81;98904.11;101858;1302;76746;-24
2022/11/05 07:40:18;;;;;;;25.40;9.00;;;;;;;7.17;82.61;98900.87;101851;1305;75327;-24
2022/11/05 07:42:50;;;;;;;24.30;10.10;;;;;;;7.53;81.84;98895.61;101879;1303;61787;-24
2022/11/05 07:45:18;;;;;;;20.40;9.80;;;;;;;7.64;81.10;98891.20;101823;1298;61809;-24
2022/11/05 07:47:49;;;;;;;25.00;11.30;;;;;;;7.52;81.33;98893.20;101941;1302;76483;-24
2022/11/05 07:50:18;;;;;;;18.50;9.30;;;;;;;7.25;82.08;98886.85;101822;1302;75702;-23
2022/11/05 07:52:45;;;;;;;23.10;10.00;;;;;;;7.11;83.12;98888.18;101854;1292;73903;-23
2022/11/05 07:55:12;;;;;;;22.80;11.60;;;;;;;7.54;82.32;98886.73;101865;1302;61859;-24
2022/11/05 07:57:47;;;;;;;26.10;11.50;;;;;;;7.62;81.48;98881.14;101955;1306;62611;-23
2022/11/05 08:00:17;;;;;;;18.00;9.90;;;;;;;7.45;82.04;98876.30;101897;1302;76117;-24
2022/11/05 08:02:58;;;;;;;24.60;12.30;;;;;;;7.30;82.30;98879.40;101849;1308;76688;-25
2022/11/05 08:05:38;;;;;;;18.90;9.70;;;;;;;7.28;83.16;98898.36;101855;1302;74319;-25
2022/11/05 08:08:06;;;;;;;20.80;9.40;;;;;;;7.75;81.88;98916.33;101886;1305;61866;-25
2022/11/05 08:10:34;;;;;;;23.00;9.60;;;;;;;7.89;80.81;98929.34;101893;1299;61645;-25
2022/11/05 08:13:01;;;;;;;23.00;9.90;;;;;;;7.76;80.95;98924.22;101883;1302;76509;-25
2022/11/05 08:15:29;;;;;;;21.30;11.40;;;;;;;7.54;81.35;98925.37;101961;1295;77055;-24
2022/11/05 08:17:59;;;;;;;22.70;8.80;;;;;;;7.41;82.21;98925.27;101933;1298;75046;-24
2022/11/05 08:20:27;;;;;;;11.30;6.30;;;;;;;7.90;81.88;98924.92;101866;1305;62937;-24
2022/11/05 08:22:55;;;;;;;23.00;12.60;;;;;;;8.36;79.68;98918.12;101858;1300;61998;-25
2022/11/05 08:25:22;;;;;;;23.50;11.80;;;;;;;8.33;79.23;98921.66;102090;1295;75626;-25
2022/11/05 08:28:00;;;;;;;21.40;9.50;;;;;;;8.10;79.59;98925.06;102214;1294;74641;-25
2022/11/05 08:30:27;;;;;;;24.40;11.10;;;;;;;7.82;80.83;98922.59;102172;1300;73846;-24
2022/11/05 08:33:06;;;;;;;16.60;8.50;;;;;;;7.61;81.62;98927.33;102147;1301;64543;-25
2022/11/05 08:35:34;;;;;;;27.00;12.10;;;;;;;8.01;81.18;98926.92;101943;1302;61135;-25
2022/11/05 08:38:03;;;;;;;20.90;10.60;;;;;;;8.23;79.83;98927.06;102025;1295;75082;-25
2022/11/05 08:40:32;;;;;;;20.30;10.00;;;;;;;8.11;80.08;98929.45;102024;1302;76890;-25
2022/11/05 08:43:01;;;;;;;20.50;11.70;;;;;;;7.87;80.73;98929.62;101944;1302;73987;-24
2022/11/05 08:45:28;;;;;;;15.00;6.90;;;;;;;7.71;81.63;98931.67;102077;1302;62918;-25
2022/11/05 08:48:13;;;;;;;22.30;12.20;;;;;;;7.89;81.67;98933.62;102135;1295;61223;-25
2022/11/05 08:50:41;;;;;;;15.00;8.00;;;;;;;8.19;80.24;98932.84;102125;1294;76204;-24
2022/11/05 08:53:08;;;;;;;24.60;11.60;;;;;;;8.13;80.32;98921.33;102212;1302;76046;-25
2022/11/05 08:55:37;;;;;;;28.60;13.80;;;;;;;7.91;80.88;98922.27;102049;1294;74213;-25
2022/11/05 08:58:06;;;;;;;20.00;10.00;;;;;;;7.73;81.82;98926.84;102294;1299;61666;-25
2022/11/05 09:00:34;;;;;;;18.60;9.90;;;;;;;7.99;81.89;98931.92;102107;1295;62907;-23
2022/11/05 09:03:03;;;;;;;21.50;11.00;;;;;;;8.24;80.81;98932.33;102161;1298;76858;-23
2022/11/05 09:05:31;;;;;;;25.00;11.80;;;;;;;8.18;80.46;98931.05;101982;1298;77135;-24
2022/11/05 09:07:58;;;;;;;21.50;10.70;;;;;;;7.96;81.31;98931.73;102286;1295;75224;-24
2022/11/05 09:10:27;;;;;;;24.20;9.80;;;;;;;7.86;82.02;98934.88;102267;1295;64373;-24
2022/11/05 09:12:55;;;;;;;18.60;10.00;;;;;;;8.24;81.25;98937.48;102081;1302;63009;-24
2022/11/05 09:15:23;;;;;;;23.80;10.30;;;;;;;8.45;80.57;98939.41;102326;1302;76166;-24
2022/11/05 09:17:50;;;;;;;27.00;12.00;;;;;;;8.34;80.42;98937.12;102124;1292;76884;-24
2022/11/05 09:20:17;;;;;;;24.90;10.60;;;;;;;8.20;81.49;98935.40;102130;1299;74054;-24
2022/11/05 09:22:45;;;;;;;16.50;7.70;;;;;;;8.24;81.52;98934.05;102158;1294;62874;-24
2022/11/05 09:25:14;;;;;;;18.10;8.90;;;;;;;8.61;80.87;98933.78;102149;1294;62901;-24
2022/11/05 09:27:42;;;;;;;23.40;11.00;;;;;;;8.73;80.00;98937.58;102264;1294;76089;-24
2022/11/05 09:30:11;;;;;;;22.50;12.80;;;;;;;8.57;80.36;98933.41;102146;1292;76841;-24
2022/11/05 09:32:38;;;;;;;25.10;11.60;;;;;;;8.35;80.76;98933.82;102046;1294;75543;-24
2022/11/05 09:35:06;;;;;;;23.60;11.20;;;;;;;8.47;81.44;98932.20;102164;1294;64259;-23
2022/11/05 09:37:34;;;;;;;23.40;10.20;;;;;;;8.83;80.32;98931.09;101997;1299;61439;-24
2022/11/05 09:40:02;;;;;;;24.80;12.20;;;;;;;8.80;79.68;98922.70;102204;1298;76381;-24
2022/11/05 09:42:38;;;;;;;22.00;10.80;;;;;;;8.55;80.22;98921.91;102061;1299;75543;-25
2022/11/05 09:45:19;;;;;;;22.00;11.00;;;;;;;8.31;81.09;98927.69;102266;1297;74930;-26
2022/11/05 09:47:55;;;;;;;28.80;11.50;;;;;;;8.44;81.55;98938.82;102268;1294;61562;-26
2022/11/05 09:50:34;;;;;;;24.60;11.30;;;;;;;8.76;80.37;98934.36;102200;1301;62839;-25
2022/11/05 09:53:01;;;;;;;20.10;9.70;;;;;;;8.64;80.31;98934.41;102194;1301;75129;-25
2022/11/05 09:55:32;;;;;;;23.10;8.80;;;;;;;8.43;81.07;98931.50;102065;1302;76315;-25
2022/11/05 09:58:05;;;;;;;20.70;9.50;;;;;;;8.39;81.78;98932.28;101912;1304;75332;-24
2022/11/05 10:00:32;;;;;;;14.50;9.20;;;;;;;8.87;80.36;98927.02;102064;1292;61508;-24
2022/11/05 10:03:05;;;;;;;22.30;12.30;;;;;;;8.91;79.55;98925.80;102301;1299;63118;-24
2022/11/05 10:05:33;;;;;;;25.90;11.40;;;;;;;8.60;80.40;98924.53;102106;1298;76156;-24
2022/11/05 10:08:10;;;;;;;14.00;6.10;;;;;;;8.37;81.25;98933.13;102264;1299;75702;-24
2022/11/05 10:10:41;;;;;;;16.20;9.40;;;;;;;8.46;81.55;98939.39;102069;1294;74207;-24
2022/11/05 10:13:24;;;;;;;17.90;8.60;;;;;;;8.81;80.29;98946.48;102388;1291;61571;-24
2022/11/05 10:15:57;;;;;;;16.20;9.20;;;;;;;8.85;80.15;98948.15;102183;1294;61179;-24
2022/11/05 10:18:31;;;;;;;20.50;9.30;;;;;;;8.66;80.34;98936.73;102188;1301;76239;-24
2022/11/05 10:20:59;;;;;;;17.60;9.00;;;;;;;8.46;80.97;98945.24;102261;1292;75894;-24
2022/11/05 10:23:26;;;;;;;17.90;9.90;;;;;;;8.71;81.16;98944.67;102292;1286;75044;-24
2022/11/05 10:26:01;;;;;;;22.40;11.80;;;;;;;9.01;79.77;98939.44;102280;1285;61879;-24
2022/11/05 10:28:29;;;;;;;18.00;10.80;;;;;;;8.97;79.50;98944.22;102145;1299;62803;-24
2022/11/05 10:30:58;;;;;;;19.70;9.10;;;;;;;8.82;79.81;98948.88;102090;1301;75385;-24
2022/11/05 10:33:33;;;;;;;24.50;10.30;;;;;;;8.55;80.87;98952.21;101988;1299;76777;-24
2022/11/05 10:36:07;;;;;;;15.60;9.10;;;;;;;8.88;80.58;98943.36;102088;1299;73619;-24
2022/11/05 10:38:34;;;;;;;15.40;8.90;;;;;;;9.12;79.38;98942.77;102067;1299;61796;-24
2022/11/05 10:41:01;;;;;;;21.00;10.90;;;;;;;9.05;79.07;98948.96;102289;1299;61751;-25
2022/11/05 10:43:45;;;;;;;13.80;7.50;;;;;;;8.84;79.56;98948.53;102305;1292;76248;-24
2022/11/05 10:46:31;;;;;;;22.50;9.30;;;;;;;8.53;80.75;98952.91;102052;1294;76456;-25
2022/11/05 10:49:17;;;;;;;19.70;10.10;;;;;;;8.79;80.89;98955.34;102158;1299;73895;-24
2022/11/05 10:51:45;;;;;;;21.90;11.10;;;;;;;8.93;80.21;98958.39;102175;1301;62910;-24
2022/11/05 10:54:17;;;;;;;21.00;10.10;;;;;;;8.80;79.89;98955.24;102268;1299;61772;-24
2022/11/05 10:56:44;;;;;;;16.60;7.90;;;;;;;8.56;80.79;98952.00;102026;1297;76411;-24
2022/11/05 10:59:38;;;;;;;17.50;8.70;;;;;;;8.63;81.43;98951.30;102069;1294;76080;-24
2022/11/05 11:02:24;;;;;;;25.10;13.80;;;;;;;8.89;80.26;98954.20;102266;1291;74181;-24
2022/11/05 11:04:52;;;;;;;18.90;10.30;;;;;;;8.75;80.57;98954.40;102041;1302;62037;-25
2022/11/05 11:07:21;;;;;;;18.70;8.80;;;;;;;8.55;81.23;98954.63;101979;1301;62836;-24
2022/11/05 11:09:49;;;;;;;20.30;10.50;;;;;;;8.57;82.03;98956.23;102015;1294;75333;-24
2022/11/05 11:12:20;;;;;;;14.30;8.30;;;;;;;9.04;80.66;98947.73;102069;1294;75757;-24
2022/11/05 11:15:12;;;;;;;17.50;9.10;;;;;;;9.09;79.90;98944.20;102153;1295;75000;-24
2022/11/05 11:17:39;;;;;;;19.60;11.20;;;;;;;8.87;80.38;98946.18;102162;1301;62108;-24
2022/11/05 11:20:25;;;;;;;20.00;6.80;;;;;;;8.58;81.25;98953.55;102193;1299;61609;-24
2022/11/05 11:22:59;;;;;;;12.00;7.90;;;;;;;8.76;81.63;98946.84;102171;1299;76607;-24
2022/11/05 11:25:47;;;;;;;19.80;10.10;;;;;;;9.10;79.96;98947.92;102120;1301;76555;-24
2022/11/05 11:28:28;;;;;;;12.10;7.20;;;;;;;9.04;80.02;98944.41;102145;1295;75225;-24
2022/11/05 11:31:04;;;;;;;14.70;7.70;;;;;;;8.84;80.82;98948.03;102177;1295;62618;-24
2022/11/05 11:33:31;;;;;;;18.60;8.00;;;;;;;8.75;81.34;98946.44;102208;1301;62597;-24
2022/11/05 11:35:58;;;;;;;23.20;11.70;;;;;;;9.09;80.86;98944.70;102021;1297;75339;-24
2022/11/05 11:38:29;;;;;;;18.60;10.20;;;;;;;9.27;79.51;98943.31;102147;1299;76708;-24
2022/11/05 11:41:18;;;;;;;23.20;12.30;;;;;;;9.19;79.64;98952.63;102019;1297;75312;-24
2022/11/05 11:43:46;;;;;;;17.10;9.10;;;;;;;8.97;80.42;98956.23;102153;1299;61704;-26
2022/11/05 11:46:16;;;;;;;21.30;9.90;;;;;;;8.88;81.07;98956.91;102230;1299;61618;-23
2022/11/05 11:48:46;;;;;;;20.00;10.30;;;;;;;9.25;80.15;98953.05;101993;1297;76323;-23
2022/11/05 11:51:27;;;;;;;15.90;8.30;;;;;;;9.33;79.39;98953.10;102077;1291;77284;-24
2022/11/05 11:53:58;;;;;;;18.20;9.80;;;;;;;9.11;80.02;98956.64;102196;1294;73063;-24
2022/11/05 11:56:26;;;;;;;20.00;9.10;;;;;;;8.91;80.93;98954.77;102267;1294;62600;-24
2022/11/05 11:59:00;;;;;;;20.60;8.40;;;;;;;8.95;81.57;98955.00;102205;1302;62850;-24
2022/11/05 12:02:02;;;;;;;19.50;10.80;;;;;;;9.31;80.35;98956.92;102206;1298;76122;-24
2022/11/05 12:04:50;;;;;;;19.20;9.90;;;;;;;9.28;80.02;98962.83;102340;1302;76872;-24
2022/11/05 12:07:51;;;;;;;15.20;8.40;;;;;;;9.02;81.08;98966.38;102135;1301;75227;-24
2022/11/05 12:10:45;;;;;;;16.40;7.70;;;;;;;8.83;82.18;98962.79;102240;1301;64513;-23
2022/11/05 12:13:22;;;;;;;20.60;8.20;;;;;;;9.22;81.36;98960.84;102250;1302;62902;-23
2022/11/05 12:15:54;;;;;;;21.60;11.30;;;;;;;9.31;80.52;98960.83;102265;1301;74331;-25
2022/11/05 12:18:42;;;;;;;22.00;10.80;;;;;;;9.17;80.65;98965.40;102020;1299;75811;-25
2022/11/05 12:21:21;;;;;;;15.10;7.60;;;;;;;8.98;82.01;98962.19;102028;1301;73930;-25
2022/11/05 12:24:19;;;;;;;19.80;10.20;;;;;;;9.30;81.25;98960.93;102092;1301;62478;-24
2022/11/05 12:26:54;;;;;;;23.70;11.80;;;;;;;9.42;80.39;98960.75;102119;1291;61777;-24
2022/11/05 12:29:33;;;;;;;19.50;9.40;;;;;;;9.26;80.87;98967.14;102120;1302;76474;-24
2022/11/05 12:32:11;;;;;;;19.10;9.40;;;;;;;8.99;82.02;98968.13;102123;1299;76543;-24
2022/11/05 12:34:48;;;;;;;16.80;9.30;;;;;;;9.19;82.42;98965.48;102209;1297;74983;-24
2022/11/05 12:37:20;;;;;;;22.60;12.20;;;;;;;9.50;81.19;98963.58;102108;1298;61674;-24
2022/11/05 12:40:16;;;;;;;21.50;9.50;;;;;;;9.49;80.68;98962.29;102064;1301;62640;-24
2022/11/05 12:43:01;;;;;;;17.60;9.70;;;;;;;9.23;81.58;98962.38;102018;1296;75393;-24
2022/11/05 12:46:02;;;;;;;18.20;9.10;;;;;;;9.05;82.51;98968.73;102012;1303;74941;-24
2022/11/05 12:48:57;;;;;;;22.20;10.60;;;;;;;9.40;81.79;98962.63;102109;1299;73901;-24
2022/11/05 12:51:52;;;;;;;16.20;9.10;;;;;;;9.43;81.49;98968.48;102032;1298;61822;-24
2022/11/05 12:54:38;;;;;;;20.50;10.10;;;;;;;9.25;81.76;98967.04;102249;1292;62846;-24
2022/11/05 12:57:07;;;;;;;19.90;8.50;;;;;;;9.13;82.66;98971.06;102148;1294;76695;-24
2022/11/05 12:59:41;;;;;;;21.70;9.50;;;;;;;9.48;82.06;98975.69;102111;1299;76045;-24
2022/11/05 13:02:46;;;;;;;20.90;9.80;;;;;;;9.52;81.50;98979.22;102167;1301;75202;-24
2022/11/05 13:05:40;;;;;;;17.60;9.50;;;;;;;9.17;82.38;98982.04;102182;1300;62946;-24
2022/11/05 13:08:11;;;;;;;17.40;9.70;;;;;;;8.97;83.64;98985.09;101959;1298;62712;-24
2022/11/05 13:10:40;;;;;;;21.20;9.30;;;;;;;9.26;82.98;98982.54;102212;1295;76185;-24
2022/11/05 13:13:17;;;;;;;20.80;12.10;;;;;;;9.42;82.56;98976.19;102005;1299;75735;-24
2022/11/05 13:16:08;;;;;;;17.80;9.80;;;;;;;9.26;82.61;98978.96;102075;1301;75126;-24
2022/11/05 13:19:02;;;;;;;21.90;9.20;;;;;;;9.01;84.14;98982.40;101775;1301;64600;-24
2022/11/05 13:21:29;;;;;;;12.20;7.70;;;;;;;9.35;83.36;98981.70;102286;1298;61481;-24
2022/11/05 13:24:02;;;;;;;18.50;10.20;;;;;;;9.50;82.20;98980.57;102066;1296;76386;-24
2022/11/05 13:26:52;;;;;;;18.20;9.90;;;;;;;9.31;82.74;98982.38;102067;1294;74712;-25
2022/11/05 13:29:43;;;;;;;16.60;8.50;;;;;;;9.05;83.91;98987.48;102079;1295;75228;-24
2022/11/05 13:32:37;;;;;;;19.40;11.30;;;;;;;9.30;83.72;98987.30;102122;1299;61893;-24
2022/11/05 13:35:07;;;;;;;33.30;17.20;;;;;;;9.45;82.98;98981.83;102307;1297;61848;-24
2022/11/05 13:41:11;;;;;;;18.10;9.40;;;;;;;9.09;84.10;98994.11;102079;1302;76736;-24
2022/11/05 13:43:46;;;;;;;24.10;13.40;;;;;;;9.62;83.06;98992.98;102018;1299;75200;-24
2022/11/05 13:46:53;;;;;;;23.90;14.30;;;;;;;9.80;81.53;98989.66;101951;1301;62849;-24
2022/11/05 13:49:45;;;;;;;48.70;32.40;;;;;;;9.53;82.25;98999.58;102271;1299;62498;-24
2022/11/05 13:52:30;;;;;;;32.70;21.20;;;;;;;9.22;83.77;98995.14;102342;1294;76650;-25
2022/11/05 13:55:32;;;;;;;43.60;24.00;;;;;;;9.42;83.42;98994.31;102052;1304;75921;-26
2022/11/05 13:58:03;;;;;;;25.70;15.30;;;;;;;9.60;82.67;98991.73;102306;1294;73817;-26
2022/11/05 14:00:38;;;;;;;28.80;19.90;;;;;;;9.39;82.93;98990.73;102122;1302;62638;-26
2022/11/05 14:03:12;;;;;;;38.30;25.00;;;;;;;9.19;83.97;98995.23;101961;1304;62859;-26
2022/11/05 14:05:40;;;;;;;25.90;13.20;;;;;;;9.56;83.38;98991.88;102067;1299;74572;-25
2022/11/05 14:08:15;;;;;;;27.50;20.70;;;;;;;9.75;82.62;98997.30;102322;1297;75556;-24
2022/11/05 14:10:44;;;;;;;19.60;10.30;;;;;;;9.64;82.39;99001.99;102047;1303;75329;-23
2022/11/05 14:13:23;;;;;;;13.70;9.80;;;;;;;9.40;83.02;99002.27;102199;1301;62947;-23
2022/11/05 14:16:03;;;;;;;21.00;13.30;;;;;;;9.47;83.52;99003.83;102041;1297;62852;-23
2022/11/05 14:18:36;;;;;;;18.60;12.30;;;;;;;9.75;82.41;99008.80;102217;1302;76328;-23
2022/11/05 14:21:05;;;;;;;19.40;14.20;;;;;;;9.66;82.27;99009.48;102147;1302;76891;-23
2022/11/05 14:23:37;;;;;;;15.40;8.60;;;;;;;9.44;82.66;99016.35;102021;1299;74103;-23
2022/11/05 14:26:18;;;;;;;14.70;9.60;;;;;;;9.43;83.38;99012.14;102158;1297;64261;-23
2022/11/05 14:29:13;;;;;;;14.10;9.20;;;;;;;9.72;82.80;99012.00;102170;1295;62866;-23
2022/11/05 14:31:53;;;;;;;16.30;10.00;;;;;;;9.63;82.38;99008.16;102150;1302;75360;-23
2022/11/05 14:35:02;;;;;;;14.10;8.70;;;;;;;9.37;82.81;99014.48;102019;1299;76584;-23
2022/11/05 14:37:59;;;;;;;14.40;9.40;;;;;;;9.51;83.12;99015.69;102043;1287;73283;-23
2022/11/05 14:40:35;;;;;;;15.20;7.30;;;;;;;9.80;81.79;99014.11;102044;1299;62800;-23
2022/11/05 14:43:18;;;;;;;27.30;14.50;;;;;;;9.63;81.78;99016.84;102027;1294;61160;-23
2022/11/05 14:45:56;;;;;;;12.40;7.50;;;;;;;9.39;82.73;99024.20;102192;1302;76264;-24
2022/11/05 14:48:47;;;;;;;19.60;10.20;;;;;;;9.48;82.87;99025.73;102181;1299;75745;-23
2022/11/05 14:51:24;;;;;;;20.30;11.40;;;;;;;9.68;81.82;99026.34;102262;1302;74974;-24
2022/11/05 14:54:26;;;;;;;14.90;8.90;;;;;;;9.53;82.00;99026.63;102169;1292;62801;-23
2022/11/05 14:56:58;;;;;;;19.40;12.10;;;;;;;9.24;83.24;99032.10;101866;1302;62852;-24
2022/11/05 14:59:27;;;;;;;24.60;13.90;;;;;;;9.51;82.77;99034.89;102063;1295;74429;-24
2022/11/05 15:01:55;;;;;;;26.10;13.80;;;;;;;9.68;82.06;99038.29;102022;1304;77007;-24
2022/11/05 15:04:36;;;;;;;29.10;17.20;;;;;;;9.55;82.05;99044.59;102110;1300;75207;-23
2022/11/05 15:07:04;;;;;;;23.40;12.70;;;;;;;9.28;83.05;99043.73;102073;1294;61739;-24
2022/11/05 15:09:43;;;;;;;19.70;11.10;;;;;;;9.29;83.62;99042.42;102077;1295;62047;-24
2022/11/05 15:12:20;;;;;;;16.30;8.80;;;;;;;9.61;82.17;99049.34;102161;1302;75228;-25
2022/11/05 15:15:03;;;;;;;15.80;10.00;;;;;;;9.54;82.03;99049.73;102285;1299;76671;-25
2022/11/05 15:17:39;;;;;;;42.50;22.30;;;;;;;9.21;83.13;99048.40;102063;1302;75139;-24
2022/11/05 15:20:13;;;;;;;25.30;16.40;;;;;;;9.24;83.54;99049.05;102009;1295;62716;-25
2022/11/05 15:22:43;;;;;;;27.40;19.00;;;;;;;9.46;82.63;99049.86;102002;1292;61890;-24
2022/11/05 15:25:20;;;;;;;27.50;17.90;;;;;;;9.42;82.67;99050.67;102008;1305;76992;-24
2022/11/05 15:28:04;;;;;;;28.70;19.30;;;;;;;9.14;83.44;99059.33;102295;1294;76678;-25
2022/11/05 15:30:31;;;;;;;32.90;22.40;;;;;;;9.21;83.77;99059.00;102253;1300;75267;-25
2022/11/05 15:33:19;;;;;;;41.80;28.60;;;;;;;9.52;82.39;99058.90;102218;1291;61769;-25
2022/11/05 15:35:46;;;;;;;60.70;42.50;;;;;;;9.50;82.20;99060.98;102020;1291;61767;-25
2022/11/05 15:38:33;;;;;;;38.20;20.80;;;;;;;9.26;82.70;99066.03;102213;1301;76154;-24
2022/11/05 15:41:05;;;;;;;47.90;31.30;;;;;;;9.22;83.75;99064.33;102123;1299;76766;-25